Time;durP1;ratioP1;P1;durP2;ratioP2;P2;SDS_P1;SDS_P2;PMS_P1;PMS_P2;Temp;Humidity;BMP_temperature;BMP_pressure;BME280_temperature;BME280_humidity;BME280_pressure;Samples;Min_cycle;Max_cycle;Signal;HPM_P1;HPM_P2
2022/01/24 00:00:37;;;;;;;705.20;672.20;;;2.30;99.90;;;;;;6199183;23;20520;-84
2022/01/24 00:03:04;;;;;;;697.47;664.27;;;2.30;99.90;;;;;;6198891;23;20416;-84
2022/01/24 00:05:30;;;;;;;678.40;647.90;;;2.20;99.90;;;;;;6199232;23;20715;-83
2022/01/24 00:07:58;;;;;;;650.30;621.30;;;2.20;99.90;;;;;;6198454;23;20412;-83
2022/01/24 00:10:27;;;;;;;624.10;597.63;;;2.20;99.90;;;;;;6198944;23;20419;-83
2022/01/24 00:13:24;;;;;;;630.47;603.97;;;2.30;99.90;;;;;;6199586;23;20436;-85
2022/01/24 00:15:59;;;;;;;641.13;613.63;;;2.30;99.90;;;;;;6199259;23;20424;-83
2022/01/24 00:18:31;;;;;;;644.20;616.90;;;2.20;99.90;;;;;;6198200;23;20528;-84
2022/01/24 00:26:46;;;;;;;644.57;616.87;;;2.10;99.90;;;;;;6199472;23;20388;-83
2022/01/24 00:29:14;;;;;;;664.20;635.63;;;2.20;99.90;;;;;;6198664;23;20429;-83
2022/01/24 00:31:41;;;;;;;664.33;635.20;;;2.10;99.90;;;;;;6198897;23;20419;-85
2022/01/24 00:34:07;;;;;;;650.00;622.17;;;2.10;99.90;;;;;;6199571;23;20413;-83
2022/01/24 00:36:35;;;;;;;641.60;614.90;;;2.20;99.90;;;;;;6199577;23;20419;-83
2022/01/24 00:39:03;;;;;;;649.50;622.00;;;2.00;99.90;;;;;;6199230;23;20835;-83
2022/01/24 00:41:35;;;;;;;675.00;646.27;;;2.00;99.90;;;;;;6198939;23;20413;-84
2022/01/24 00:44:25;;;;;;;675.87;646.83;;;2.00;99.90;;;;;;6198086;23;20397;-85
2022/01/24 00:46:55;;;;;;;703.20;671.40;;;1.80;99.90;;;;;;6198368;23;20417;-82
2022/01/24 00:49:43;;;;;;;734.97;700.07;;;1.70;99.90;;;;;;6209173;23;20459;-83
2022/01/24 00:54:56;;;;;;;782.30;742.60;;;1.60;99.90;;;;;;6209271;23;20773;-83
2022/01/24 00:57:23;;;;;;;771.73;733.53;;;1.40;99.90;;;;;;6196715;23;20462;-83
2022/01/24 00:59:50;;;;;;;742.90;708.73;;;1.20;99.90;;;;;;6198342;23;20444;-83
2022/01/24 01:02:19;;;;;;;757.07;721.43;;;1.20;99.90;;;;;;6200804;23;20419;-83
2022/01/24 01:05:01;;;;;;;805.80;762.70;;;0.90;99.90;;;;;;6199812;23;20742;-83
2022/01/24 01:07:34;;;;;;;838.70;788.10;;;0.80;99.90;;;;;;6199625;23;20393;-83
2022/01/24 01:18:18;;;;;;;850.03;782.43;;;0.40;99.90;;;;;;6200097;23;20922;-83
2022/01/24 01:21:07;;;;;;;835.43;764.67;;;0.50;99.90;;;;;;6199725;23;20420;-83
2022/01/24 01:23:37;;;;;;;839.70;769.50;;;0.70;99.90;;;;;;6199417;23;20505;-84
2022/01/24 01:26:10;;;;;;;854.50;783.40;;;0.80;99.90;;;;;;6199743;23;20439;-84
2022/01/24 01:28:41;;;;;;;845.03;775.67;;;0.80;99.90;;;;;;6199237;23;20806;-83
2022/01/24 01:31:16;;;;;;;849.17;780.07;;;0.70;99.90;;;;;;6200090;23;20397;-83
2022/01/24 01:33:54;;;;;;;845.17;775.17;;;0.80;99.90;;;;;;6199387;23;20491;-83
2022/01/24 01:36:28;;;;;;;856.60;786.70;;;0.80;99.90;;;;;;6200378;23;20599;-85
2022/01/24 01:39:29;;;;;;;857.70;788.90;;;0.80;99.90;;;;;;6199789;23;20468;-84
2022/01/24 01:53:04;;;;;;;873.70;813.73;;;0.60;99.90;;;;;;6200128;23;20400;-83
2022/01/24 01:55:38;;;;;;;880.00;817.50;;;0.50;99.90;;;;;;6198990;23;20424;-82
2022/01/24 01:58:08;;;;;;;876.10;814.00;;;0.50;99.90;;;;;;6199334;23;20491;-86
2022/01/24 02:00:36;;;;;;;859.47;792.30;;;0.40;99.90;;;;;;6198999;23;20427;-82
2022/01/24 02:03:04;;;;;;;851.77;780.70;;;0.40;99.90;;;;;;6199662;23;20743;-82
2022/01/24 02:05:31;;;;;;;852.10;777.80;;;0.50;99.90;;;;;;6199179;23;20413;-83
2022/01/24 02:07:58;;;;;;;843.17;770.03;;;0.70;99.90;;;;;;6199915;23;20409;-83
2022/01/24 02:10:26;;;;;;;848.67;776.00;;;0.80;99.90;;;;;;6198400;23;20413;-85
2022/01/24 02:12:55;;;;;;;858.27;787.97;;;0.70;99.90;;;;;;6198742;23;20413;-83
2022/01/24 02:15:29;;;;;;;856.33;783.77;;;0.60;99.90;;;;;;6198898;23;20416;-82
2022/01/24 02:18:06;;;;;;;854.33;782.07;;;0.70;99.90;;;;;;6199221;23;20421;-84
2022/01/24 02:20:44;;;;;;;862.30;791.60;;;0.60;99.90;;;;;;6199083;23;21061;-82
2022/01/24 02:23:38;;;;;;;860.60;787.80;;;0.50;99.90;;;;;;6199745;23;20606;-83
2022/01/24 02:26:10;;;;;;;856.10;783.73;;;0.40;99.90;;;;;;6199556;23;20433;-84
2022/01/24 02:28:48;;;;;;;858.07;784.90;;;0.30;99.90;;;;;;6198631;23;20927;-82
2022/01/24 02:31:36;;;;;;;845.13;774.27;;;0.20;99.90;;;;;;6198300;23;20867;-82
2022/01/24 02:34:03;;;;;;;846.70;774.20;;;0.10;99.90;;;;;;6198548;23;20504;-82
2022/01/24 02:36:30;;;;;;;856.37;786.57;;;0.00;99.90;;;;;;6198801;23;20409;-84
2022/01/24 02:39:08;;;;;;;857.10;789.63;;;-0.10;99.90;;;;;;6207749;23;20440;-84
2022/01/24 02:49:48;;;;;;;840.23;765.07;;;-0.40;99.90;;;;;;6208335;23;20419;-84
2022/01/24 02:52:16;;;;;;;832.47;757.87;;;-0.40;99.90;;;;;;6198478;23;20408;-84
2022/01/24 02:54:46;;;;;;;853.30;777.37;;;-0.40;99.90;;;;;;6198038;23;20413;-83
2022/01/24 02:57:12;;;;;;;845.27;769.57;;;-0.50;99.90;;;;;;6198602;23;20416;-82
2022/01/24 02:59:39;;;;;;;845.30;767.70;;;-0.50;99.90;;;;;;6197425;23;20445;-83
2022/01/24 03:02:06;;;;;;;841.70;762.23;;;-0.60;99.90;;;;;;6198175;23;20420;-85
2022/01/24 03:04:33;;;;;;;846.65;767.60;;;-0.70;99.90;;;;;;6198189;23;20413;-82
2022/01/24 03:07:00;;;;;;;850.73;770.50;;;-0.60;99.90;;;;;;6197777;23;20237;-82
2022/01/24 03:09:27;;;;;;;843.40;763.60;;;-0.70;99.90;;;;;;6199323;23;20431;-84
2022/01/24 03:12:03;;;;;;;837.43;757.40;;;-0.80;99.90;;;;;;6197585;23;20918;-83
2022/01/24 03:14:33;;;;;;;838.77;758.57;;;-0.80;99.90;;;;;;6198234;23;20427;-83
2022/01/24 03:17:01;;;;;;;842.90;762.30;;;-0.70;99.90;;;;;;6196714;23;20402;-82
2022/01/24 03:19:28;;;;;;;841.07;760.70;;;-0.80;99.90;;;;;;6198430;23;20447;-82
2022/01/24 03:21:54;;;;;;;841.70;761.07;;;-0.70;99.90;;;;;;6199271;23;20409;-83
2022/01/24 03:24:21;;;;;;;842.80;760.50;;;-0.80;99.90;;;;;;6199056;23;20758;-83
2022/01/24 03:26:48;;;;;;;856.10;772.97;;;-1.00;99.90;;;;;;6198708;23;20170;-84
2022/01/24 03:29:16;;;;;;;844.75;759.92;;;-0.90;99.90;;;;;;6199751;23;20429;-83
2022/01/24 03:31:45;;;;;;;842.60;757.47;;;-0.90;99.90;;;;;;6199698;23;20170;-83
2022/01/24 03:34:12;;;;;;;822.70;738.13;;;-0.90;99.90;;;;;;6196171;23;20488;-80
2022/01/24 03:36:38;;;;;;;843.43;757.83;;;-0.80;99.90;;;;;;6194595;23;20761;-82
2022/01/24 03:39:05;;;;;;;821.07;735.20;;;-0.80;99.90;;;;;;6197034;23;20440;-83
2022/01/24 03:41:32;;;;;;;825.23;738.73;;;-0.60;99.90;;;;;;6200044;23;20755;-84
2022/01/24 03:44:03;;;;;;;812.80;726.47;;;-0.50;99.90;;;;;;6197515;23;20413;-83
2022/01/24 03:46:46;;;;;;;821.50;734.70;;;-0.40;99.90;;;;;;6197464;23;20733;-85
2022/01/24 03:49:45;;;;;;;820.03;733.75;;;-0.40;99.90;;;;;;6198064;23;20435;-83
2022/01/24 03:52:01;;;;;;;811.10;726.13;;;-0.10;99.90;;;;;;6201102;23;20177;-83
2022/01/24 03:54:28;;;;;;;810.80;725.70;;;-0.10;99.90;;;;;;6200354;23;20413;-82
2022/01/24 03:56:55;;;;;;;812.80;726.30;;;0.10;99.90;;;;;;6200364;23;20970;-83
2022/01/24 03:59:21;;;;;;;813.23;727.17;;;0.10;99.90;;;;;;6198683;23;20448;-84
2022/01/24 04:01:52;;;;;;;801.37;716.57;;;0.20;99.90;;;;;;6201293;23;20410;-84
2022/01/24 04:04:19;;;;;;;804.57;719.23;;;0.30;99.90;;;;;;6200821;23;20397;-85
2022/01/24 04:06:48;;;;;;;787.80;703.93;;;0.30;99.90;;;;;;6199407;23;20416;-84
2022/01/24 04:09:14;;;;;;;766.93;684.30;;;0.50;99.90;;;;;;6199719;23;20429;-84
2022/01/24 04:11:41;;;;;;;775.10;692.93;;;0.70;99.90;;;;;;6199170;23;20416;-83
2022/01/24 04:14:25;;;;;;;760.67;680.83;;;0.80;99.90;;;;;;6198044;23;20417;-83
2022/01/24 04:17:06;;;;;;;747.87;671.17;;;0.80;99.90;;;;;;6200004;23;20397;-85
2022/01/24 04:22:18;;;;;;;725.80;652.30;;;1.00;99.90;;;;;;6198897;23;20759;-85
2022/01/24 04:24:47;;;;;;;730.33;657.20;;;1.10;99.90;;;;;;6201783;23;20871;-84
2022/01/24 04:27:15;;;;;;;743.43;669.53;;;1.20;99.90;;;;;;6200676;23;20413;-83
2022/01/24 04:29:43;;;;;;;738.90;666.30;;;1.20;99.90;;;;;;6200463;23;20432;-84
2022/01/24 04:32:11;;;;;;;741.30;668.90;;;1.30;99.90;;;;;;6199937;23;20434;-84
2022/01/24 04:34:38;;;;;;;737.80;666.60;;;1.40;99.90;;;;;;6199520;23;20427;-83
2022/01/24 04:37:05;;;;;;;741.90;672.10;;;1.50;99.90;;;;;;6199602;23;20710;-84
2022/01/24 04:39:32;;;;;;;735.13;667.30;;;1.60;99.90;;;;;;6199382;23;20441;-85
2022/01/24 04:42:06;;;;;;;742.27;676.33;;;1.70;99.90;;;;;;6200345;23;20413;-84
2022/01/24 04:44:50;;;;;;;752.73;688.43;;;1.70;99.90;;;;;;6210045;23;20409;-84
2022/01/24 04:47:24;;;;;;;753.87;691.97;;;1.80;99.90;;;;;;6200837;23;20778;-86
2022/01/24 04:52:46;;;;;;;787.03;732.17;;;2.10;99.90;;;;;;6199849;23;20409;-85
2022/01/24 04:55:16;;;;;;;771.67;721.03;;;2.30;99.90;;;;;;6195194;23;20401;-84
2022/01/24 04:57:46;;;;;;;745.40;702.10;;;2.20;99.90;;;;;;6207935;23;20413;-85
2022/01/24 05:00:14;;;;;;;726.37;687.57;;;2.30;99.90;;;;;;6189191;23;20447;-86
2022/01/24 05:02:42;;;;;;;726.43;687.40;;;2.50;99.90;;;;;;6200287;23;20436;-85
2022/01/24 05:05:14;;;;;;;725.43;686.57;;;2.40;99.90;;;;;;6199012;23;20497;-86
2022/01/24 05:07:41;;;;;;;713.60;676.23;;;2.50;99.90;;;;;;6206211;23;20417;-86
2022/01/24 05:10:15;;;;;;;695.20;659.40;;;2.50;99.90;;;;;;6210018;23;20433;-86
2022/01/24 05:23:45;;;;;;;663.30;631.47;;;2.60;99.90;;;;;;6212995;23;20391;-86
2022/01/24 05:26:15;;;;;;;650.27;619.90;;;2.60;99.90;;;;;;6212432;23;20409;-85
2022/01/24 05:28:42;;;;;;;648.47;619.00;;;2.80;99.90;;;;;;6198001;23;20433;-85
2022/01/24 05:31:18;;;;;;;640.73;612.17;;;2.90;99.90;;;;;;6207286;23;20424;-82
2022/01/24 05:33:46;;;;;;;596.20;570.90;;;2.80;99.90;;;;;;6204865;23;20423;-87
2022/01/24 05:36:13;;;;;;;580.97;556.87;;;2.70;99.90;;;;;;6206308;23;20473;-84
2022/01/24 05:38:40;;;;;;;608.90;583.20;;;2.60;99.90;;;;;;6194155;23;20943;-84
2022/01/24 05:41:07;;;;;;;617.93;591.30;;;2.30;99.90;;;;;;6193973;23;20904;-84
2022/01/24 05:43:35;;;;;;;649.73;619.87;;;2.10;99.90;;;;;;6193104;23;20409;-84
2022/01/24 05:46:06;;;;;;;689.03;655.07;;;2.00;99.90;;;;;;6192665;23;20417;-85
2022/01/24 05:48:32;;;;;;;713.93;674.57;;;1.90;99.90;;;;;;6204379;23;20433;-83
2022/01/24 05:51:03;;;;;;;735.00;689.63;;;1.80;99.90;;;;;;6193854;23;20765;-83
2022/01/24 05:53:30;;;;;;;747.30;698.53;;;1.70;99.90;;;;;;6194690;23;20397;-85
2022/01/24 05:55:59;;;;;;;738.67;686.37;;;1.50;99.90;;;;;;6193048;23;20413;-83
2022/01/24 05:58:25;;;;;;;748.10;695.60;;;1.40;99.90;;;;;;6194005;23;20779;-83
2022/01/24 06:00:52;;;;;;;757.00;707.03;;;1.30;99.90;;;;;;6195688;23;20428;-85
2022/01/24 06:03:20;;;;;;;758.40;707.93;;;1.00;99.90;;;;;;6206738;23;20499;-84
2022/01/24 06:05:55;;;;;;;764.80;714.40;;;0.90;99.90;;;;;;6195766;23;20791;-84
2022/01/24 06:08:23;;;;;;;763.27;713.03;;;0.60;99.90;;;;;;6198497;23;20436;-86
2022/01/24 06:10:53;;;;;;;753.20;700.03;;;0.60;99.90;;;;;;6210779;23;20844;-85
2022/01/24 06:13:22;;;;;;;751.07;696.73;;;0.50;99.90;;;;;;6211092;23;20492;-85
2022/01/24 06:15:49;;;;;;;747.60;691.70;;;0.40;99.90;;;;;;6209754;23;20433;-84
2022/01/24 06:18:20;;;;;;;748.37;691.23;;;0.30;99.90;;;;;;6205814;23;20471;-84
2022/01/24 06:20:49;;;;;;;737.37;679.43;;;0.30;99.90;;;;;;6198156;23;20401;-85
2022/01/24 06:23:17;;;;;;;743.80;683.17;;;0.40;99.90;;;;;;6197848;23;20416;-84
2022/01/24 06:25:45;;;;;;;738.73;676.90;;;0.40;99.90;;;;;;6197790;23;20481;-87
2022/01/24 06:28:12;;;;;;;738.83;676.67;;;0.40;99.90;;;;;;6198256;23;21151;-84
2022/01/24 06:30:47;;;;;;;730.93;668.27;;;0.40;99.90;;;;;;6197222;23;20416;-85
2022/01/24 06:44:17;;;;;;;715.50;650.40;;;0.90;99.90;;;;;;6161710;23;20927;-85
2022/01/24 07:24:22;;;;;;;730.83;668.77;;;1.40;99.90;;;;;;6148614;23;20427;-84
2022/01/24 07:36:37;;;;;;;735.43;671.77;;;1.60;99.90;;;;;;6224337;23;20400;-84
2022/01/24 07:46:16;;;;;;;725.80;665.30;;;1.90;99.90;;;;;;6019745;23;20814;-85
2022/01/24 07:52:03;;;;;;;730.23;669.90;;;2.10;99.90;;;;;;6060609;23;20456;-84
2022/01/24 07:54:38;;;;;;;723.73;665.17;;;2.10;99.90;;;;;;6224083;23;20422;-84
2022/01/24 07:57:05;;;;;;;729.40;672.50;;;2.20;99.90;;;;;;6232996;23;20466;-83
2022/01/24 07:59:32;;;;;;;720.17;664.57;;;2.10;99.90;;;;;;6221790;23;20444;-84
2022/01/24 08:02:36;;;;;;;730.77;676.17;;;2.30;99.90;;;;;;6224723;23;20416;-84
2022/01/24 08:05:06;;;;;;;736.57;682.60;;;2.30;99.90;;;;;;6135675;23;20419;-85
2022/01/24 08:07:39;;;;;;;736.50;683.20;;;2.20;99.90;;;;;;6234006;23;20912;-85
2022/01/24 08:10:08;;;;;;;730.50;678.40;;;2.40;99.90;;;;;;6232202;23;20511;-85
2022/01/24 08:12:35;;;;;;;745.23;694.27;;;2.30;99.90;;;;;;6222238;23;20408;-84
2022/01/24 08:15:02;;;;;;;742.53;693.33;;;2.30;99.90;;;;;;6225330;23;20422;-83
2022/01/24 08:17:29;;;;;;;727.13;678.63;;;2.20;99.90;;;;;;6223926;23;20487;-85
2022/01/24 08:19:56;;;;;;;747.63;699.57;;;2.20;99.90;;;;;;6224301;23;20440;-84
2022/01/24 08:22:25;;;;;;;748.80;699.73;;;2.10;99.90;;;;;;6234612;23;20408;-84
2022/01/24 08:24:52;;;;;;;732.47;682.37;;;2.10;99.90;;;;;;6223905;23;20415;-85
2022/01/24 08:27:19;;;;;;;726.80;676.50;;;2.10;99.90;;;;;;6224197;23;20412;-84
2022/01/24 08:29:47;;;;;;;730.13;678.10;;;2.00;99.90;;;;;;6225582;23;20426;-84
2022/01/24 08:32:14;;;;;;;712.97;659.57;;;1.90;99.90;;;;;;6224348;23;20412;-85
2022/01/24 08:34:41;;;;;;;723.40;668.10;;;2.00;99.90;;;;;;6224113;23;20418;-84
2022/01/24 08:37:08;;;;;;;718.97;662.13;;;1.90;99.90;;;;;;6226265;23;20408;-85
2022/01/24 08:39:36;;;;;;;727.47;667.97;;;1.80;99.90;;;;;;6223662;23;20439;-84
2022/01/24 08:42:13;;;;;;;716.50;656.30;;;1.90;99.90;;;;;;6224950;23;20413;-82
2022/01/24 08:47:27;;;;;;;725.53;663.53;;;2.00;99.90;;;;;;6236287;23;20420;-84
2022/01/24 08:49:54;;;;;;;722.40;658.50;;;2.00;99.90;;;;;;6224214;23;20438;-84
2022/01/24 08:52:21;;;;;;;714.87;650.80;;;2.10;99.90;;;;;;6224374;23;20411;-83
2022/01/24 08:54:49;;;;;;;723.63;660.17;;;2.20;99.90;;;;;;6224500;23;20756;-83
2022/01/24 08:57:21;;;;;;;724.10;659.00;;;2.20;99.90;;;;;;6224723;23;20412;-84
2022/01/24 08:59:48;;;;;;;719.80;655.03;;;2.40;99.90;;;;;;6224424;23;20554;-84
2022/01/24 09:02:15;;;;;;;742.90;678.23;;;2.40;99.90;;;;;;6224594;23;21006;-82
2022/01/24 09:04:41;;;;;;;745.37;681.30;;;2.60;99.90;;;;;;6226433;23;20436;-83
2022/01/24 09:07:09;;;;;;;743.83;680.77;;;2.60;99.90;;;;;;6224970;23;20415;-84
2022/01/24 09:09:38;;;;;;;741.57;679.57;;;2.80;99.90;;;;;;6225777;23;20428;-85
2022/01/24 09:12:11;;;;;;;737.43;676.10;;;2.90;99.90;;;;;;6224301;23;20926;-83
2022/01/24 09:14:38;;;;;;;748.07;687.17;;;2.90;99.90;;;;;;6224148;23;20403;-86
2022/01/24 09:17:05;;;;;;;745.80;686.20;;;2.90;99.90;;;;;;6224387;23;20408;-85
2022/01/24 09:19:32;;;;;;;760.93;704.63;;;3.00;99.90;;;;;;6233220;23;20564;-83
2022/01/24 09:21:59;;;;;;;763.80;709.60;;;3.20;99.90;;;;;;6226710;23;20423;-85
2022/01/24 09:24:25;;;;;;;774.43;723.00;;;3.30;99.90;;;;;;6225731;23;20949;-83
2022/01/24 09:26:52;;;;;;;766.30;715.90;;;3.30;99.90;;;;;;6226193;23;20779;-84
2022/01/24 09:29:20;;;;;;;764.37;715.83;;;3.50;99.90;;;;;;6226780;23;20511;-85
2022/01/24 09:31:47;;;;;;;744.00;698.97;;;3.60;99.90;;;;;;6229149;23;20435;-84
2022/01/24 09:34:14;;;;;;;727.67;684.27;;;3.70;99.90;;;;;;6238667;23;20408;-84
2022/01/24 09:36:41;;;;;;;711.87;670.90;;;3.70;99.90;;;;;;6226173;23;20918;-83
2022/01/24 09:39:08;;;;;;;678.10;641.90;;;3.80;99.90;;;;;;6228453;23;20432;-84
2022/01/24 09:41:35;;;;;;;673.33;638.77;;;3.80;99.90;;;;;;6228039;23;20404;-84
2022/01/24 09:44:02;;;;;;;636.53;605.70;;;4.00;99.90;;;;;;6227129;23;20434;-84
2022/01/24 09:46:31;;;;;;;611.07;583.43;;;4.10;99.90;;;;;;6225959;23;20748;-83
2022/01/24 09:48:58;;;;;;;558.60;535.00;;;4.20;99.90;;;;;;6225572;23;20470;-83
2022/01/24 09:51:25;;;;;;;554.77;531.53;;;4.20;99.90;;;;;;6226466;23;20439;-84
2022/01/24 09:53:52;;;;;;;548.00;525.90;;;4.30;99.90;;;;;;6226350;23;20411;-85
2022/01/24 09:56:20;;;;;;;426.53;410.80;;;4.40;99.90;;;;;;6226611;23;20416;-87
2022/01/24 09:58:47;;;;;;;381.10;367.40;;;4.50;99.90;;;;;;6236424;23;20964;-84
2022/01/24 10:01:15;;;;;;;320.83;309.03;;;4.50;99.90;;;;;;6236860;23;20436;-84
2022/01/24 10:04:07;;;;;;;226.07;218.00;;;4.60;99.90;;;;;;6237527;23;20807;-83
2022/01/24 10:06:58;;;;;;;173.93;166.33;;;4.70;99.90;;;;;;6237770;23;20487;-84
2022/01/24 10:09:34;;;;;;;100.50;95.97;;;4.90;99.90;;;;;;6237142;23;20451;-84
2022/01/24 10:16:24;;;;;;;57.47;54.37;;;5.20;99.90;;;;;;6225749;23;20767;-84
2022/01/24 10:18:15;;;;;;;43.27;40.93;;;5.40;99.90;;;;;;6240743;23;20427;-84
2022/01/24 10:20:43;;;;;;;29.87;27.67;;;5.70;99.90;;;;;;6227589;23;20466;-84
2022/01/24 10:23:16;;;;;;;18.63;16.87;;;5.70;99.90;;;;;;6227169;23;20418;-84
2022/01/24 10:25:53;;;;;;;20.57;18.50;;;5.80;99.90;;;;;;6225494;23;20400;-82
2022/01/24 10:28:26;;;;;;;16.70;15.20;;;5.80;99.90;;;;;;6237617;23;20451;-83
2022/01/24 10:31:05;;;;;;;22.10;20.10;;;5.80;99.90;;;;;;6225499;23;20404;-84
2022/01/24 10:33:32;;;;;;;24.10;22.30;;;5.60;99.90;;;;;;6230337;23;20418;-84
2022/01/24 10:36:00;;;;;;;21.80;20.00;;;5.70;99.90;;;;;;6230655;23;20412;-83
2022/01/24 10:38:34;;;;;;;15.67;14.07;;;5.80;99.90;;;;;;6229615;23;20435;-85
2022/01/24 10:41:18;;;;;;;12.37;11.07;;;5.70;99.90;;;;;;6227072;23;20514;-83
2022/01/24 10:43:47;;;;;;;12.90;11.60;;;5.80;99.90;;;;;;6228673;23;20463;-84
2022/01/24 10:46:14;;;;;;;10.37;9.23;;;5.80;99.90;;;;;;6228597;23;20929;-83
2022/01/24 10:48:43;;;;;;;11.40;10.13;;;5.90;99.20;;;;;;6229457;23;20464;-83
2022/01/24 10:51:14;;;;;;;11.73;10.50;;;5.90;98.90;;;;;;6224383;23;20408;-83
2022/01/24 10:53:44;;;;;;;12.47;10.27;;;6.10;98.90;;;;;;6222639;23;20464;-83
2022/01/24 10:56:28;;;;;;;13.60;11.10;;;6.30;98.20;;;;;;6222072;23;20418;-83
2022/01/24 10:59:02;;;;;;;12.17;11.07;;;6.20;98.00;;;;;;6220534;23;20971;-84
2022/01/24 11:01:32;;;;;;;12.47;10.30;;;6.30;97.80;;;;;;6230448;23;20431;-83
2022/01/24 11:04:02;;;;;;;12.10;10.80;;;6.30;96.60;;;;;;6230707;23;20404;-84
2022/01/24 11:06:33;;;;;;;12.67;10.90;;;6.20;96.70;;;;;;6220724;23;20412;-83
2022/01/24 11:09:28;;;;;;;12.00;10.70;;;6.20;96.90;;;;;;6221723;23;20531;-85
2022/01/24 11:11:57;;;;;;;15.73;12.07;;;6.10;96.50;;;;;;6231463;23;20683;-82
2022/01/24 11:14:26;;;;;;;13.23;11.87;;;6.10;96.50;;;;;;6218770;23;20463;-83
2022/01/24 11:16:56;;;;;;;13.13;11.83;;;5.80;96.40;;;;;;6220612;23;20416;-83
2022/01/24 11:19:28;;;;;;;14.17;11.13;;;6.00;96.90;;;;;;6220585;23;20499;-82
2022/01/24 11:21:58;;;;;;;13.77;12.47;;;5.90;96.50;;;;;;6219418;23;20459;-83
2022/01/24 11:24:35;;;;;;;11.27;10.17;;;5.90;96.50;;;;;;6220010;23;20416;-84
2022/01/24 11:27:02;;;;;;;10.53;8.80;;;6.20;96.20;;;;;;6219953;23;20886;-83
2022/01/24 11:29:29;;;;;;;11.07;9.83;;;6.50;95.50;;;;;;6218861;23;21058;-84
2022/01/24 11:32:03;;;;;;;10.20;9.10;;;6.50;94.20;;;;;;6230548;23;20838;-82
2022/01/24 11:34:35;;;;;;;13.70;9.43;;;6.70;93.60;;;;;;6220784;23;20396;-82
2022/01/24 11:37:04;;;;;;;9.57;8.57;;;7.00;93.60;;;;;;6218456;23;20397;-84
2022/01/24 11:39:31;;;;;;;9.33;8.33;;;6.80;92.00;;;;;;6218312;23;20435;-82
2022/01/24 11:41:59;;;;;;;13.53;8.40;;;7.00;91.80;;;;;;6220920;23;20523;-82
2022/01/24 11:44:44;;;;;;;10.87;7.97;;;7.30;91.40;;;;;;6219978;23;20552;-83
2022/01/24 11:47:21;;;;;;;10.67;8.47;;;7.70;87.60;;;;;;6221300;23;20396;-83
2022/01/24 11:49:52;;;;;;;9.53;8.50;;;8.20;85.00;;;;;;6220031;23;20933;-82
2022/01/24 11:52:28;;;;;;;8.47;7.57;;;8.20;84.10;;;;;;6221425;23;20397;-83
2022/01/24 11:55:12;;;;;;;8.80;7.90;;;8.30;81.30;;;;;;6220979;23;20403;-84
2022/01/24 11:57:41;;;;;;;20.23;8.10;;;8.70;79.00;;;;;;6222188;23;20405;-83
2022/01/24 12:00:18;;;;;;;11.83;8.97;;;8.90;77.60;;;;;;6220997;23;20432;-83
2022/01/24 12:02:46;;;;;;;8.43;7.47;;;8.90;77.60;;;;;;6221353;23;20455;-83
2022/01/24 12:05:14;;;;;;;10.27;7.50;;;8.60;76.70;;;;;;6221429;23;20464;-84
2022/01/24 12:07:44;;;;;;;8.60;7.40;;;8.30;76.70;;;;;;6220476;23;20412;-84
2022/01/24 12:10:44;;;;;;;9.57;8.57;;;8.10;78.30;;;;;;6219925;23;20435;-83
2022/01/24 12:13:14;;;;;;;10.50;8.30;;;7.70;79.30;;;;;;6220549;23;20874;-83
2022/01/24 12:15:57;;;;;;;9.97;8.27;;;7.40;80.90;;;;;;6220246;23;20396;-83
2022/01/24 12:18:46;;;;;;;10.37;8.70;;;7.40;82.20;;;;;;6220597;23;20500;-82
2022/01/24 12:21:14;;;;;;;11.10;9.13;;;7.10;83.40;;;;;;6219481;23;20535;-83
2022/01/24 12:23:42;;;;;;;12.80;8.70;;;7.00;84.70;;;;;;6220674;23;20411;-84
2022/01/24 12:26:20;;;;;;;10.83;9.73;;;6.80;87.00;;;;;;6219680;23;20412;-83
2022/01/24 12:28:50;;;;;;;11.77;9.37;;;6.70;89.10;;;;;;6219789;23;20462;-83
2022/01/24 12:31:23;;;;;;;12.33;10.37;;;6.60;88.70;;;;;;6219279;23;20533;-83
2022/01/24 12:34:04;;;;;;;11.20;10.10;;;6.60;90.10;;;;;;6219539;23;20413;-82
2022/01/24 12:37:00;;;;;;;15.13;11.20;;;6.40;90.00;;;;;;6218269;23;20420;-83
2022/01/24 12:39:45;;;;;;;11.40;10.27;;;6.40;91.70;;;;;;6219638;23;20203;-82
2022/01/24 12:42:17;;;;;;;11.50;8.80;;;6.70;90.40;;;;;;6219565;23;20420;-83
2022/01/24 12:47:31;;;;;;;12.10;9.17;;;7.00;90.80;;;;;;6220166;23;20402;-83
2022/01/24 12:49:59;;;;;;;11.40;8.23;;;7.30;90.10;;;;;;6220122;23;20432;-84
2022/01/24 12:52:27;;;;;;;11.03;9.47;;;7.50;87.30;;;;;;6220102;23;20408;-84
2022/01/24 12:54:57;;;;;;;10.80;9.07;;;7.70;87.60;;;;;;6220617;23;20787;-84
2022/01/24 12:57:29;;;;;;;12.30;9.10;;;7.80;85.10;;;;;;6222603;23;20422;-83
2022/01/24 12:59:59;;;;;;;13.63;8.47;;;7.60;85.10;;;;;;6222232;23;20519;-83
2022/01/24 13:02:31;;;;;;;11.73;8.90;;;7.70;84.70;;;;;;6222727;23;20438;-83
2022/01/24 13:05:06;;;;;;;10.53;9.00;;;7.60;84.10;;;;;;6219597;23;20400;-84
2022/01/24 13:07:33;;;;;;;13.10;9.77;;;7.60;86.90;;;;;;6222162;23;20396;-83
2022/01/24 13:10:22;;;;;;;8.47;6.60;;;7.80;87.30;;;;;;6221197;23;20443;-83
2022/01/24 13:12:57;;;;;;;9.70;6.73;;;7.80;86.30;;;;;;6221833;23;20424;-83
2022/01/24 13:20:23;;;;;;;24.27;7.60;;;7.60;83.70;;;;;;6221462;23;20423;-83
2022/01/24 13:21:11;;;;;;;9.07;7.50;;;7.50;84.80;;;;;;6220853;23;20449;-83
2022/01/24 13:23:42;;;;;;;8.87;7.67;;;7.20;85.40;;;;;;6223478;23;20399;-83
2022/01/24 13:26:10;;;;;;;9.60;8.37;;;7.10;86.30;;;;;;6221370;23;20780;-82
2022/01/24 13:28:37;;;;;;;9.60;8.00;;;7.00;89.20;;;;;;6220551;23;20431;-83
2022/01/24 13:31:05;;;;;;;9.90;8.20;;;7.10;89.20;;;;;;6221276;23;20744;-83
2022/01/24 13:33:33;;;;;;;10.17;9.17;;;7.10;88.00;;;;;;6221380;23;20792;-83
2022/01/24 13:36:05;;;;;;;15.40;8.40;;;7.10;88.50;;;;;;6219457;23;20534;-82
2022/01/24 13:38:34;;;;;;;9.67;7.93;;;6.90;87.70;;;;;;6220995;23;20432;-83
2022/01/24 13:41:04;;;;;;;9.00;8.10;;;6.80;87.90;;;;;;6221795;23;20979;-83
2022/01/24 13:43:37;;;;;;;9.90;8.90;;;6.90;88.80;;;;;;6221864;23;20441;-83
2022/01/24 13:46:07;;;;;;;9.47;8.47;;;6.90;89.90;;;;;;6221946;23;20403;-83
2022/01/24 13:48:43;;;;;;;12.50;9.60;;;7.10;90.30;;;;;;6231788;23;20756;-84
2022/01/24 13:51:13;;;;;;;8.87;7.90;;;7.10;88.70;;;;;;6222904;23;20418;-83
2022/01/24 13:53:41;;;;;;;9.57;8.57;;;7.40;87.40;;;;;;6222699;23;20407;-84
2022/01/24 13:56:21;;;;;;;9.50;8.10;;;7.40;86.90;;;;;;6223017;23;20412;-84
2022/01/24 13:59:02;;;;;;;13.73;8.43;;;7.50;87.60;;;;;;6222108;23;20759;-83
2022/01/24 14:01:29;;;;;;;13.80;9.20;;;7.70;86.30;;;;;;6222318;23;20424;-83
2022/01/24 14:03:57;;;;;;;10.90;8.83;;;7.50;84.50;;;;;;6222712;23;20412;-84
2022/01/24 14:06:25;;;;;;;9.93;7.80;;;7.50;84.70;;;;;;6222165;23;20443;-82
2022/01/24 14:09:06;;;;;;;10.47;9.50;;;7.50;84.80;;;;;;6221062;23;20432;-83
2022/01/24 14:11:33;;;;;;;14.53;8.63;;;7.30;86.10;;;;;;6221628;23;20393;-82
2022/01/24 14:14:05;;;;;;;8.93;8.00;;;7.30;87.00;;;;;;6222563;23;20502;-83
2022/01/24 14:16:43;;;;;;;10.13;9.17;;;6.90;85.50;;;;;;6222131;23;20950;-83
2022/01/24 14:19:09;;;;;;;10.43;7.70;;;7.00;87.10;;;;;;6222668;23;20428;-83
2022/01/24 14:21:38;;;;;;;10.17;8.57;;;7.00;87.40;;;;;;6222563;23;20435;-83
2022/01/24 14:24:07;;;;;;;11.53;8.20;;;7.00;88.90;;;;;;6222556;23;20431;-83
2022/01/24 14:26:35;;;;;;;8.80;7.77;;;7.00;88.00;;;;;;6221441;23;20416;-84
2022/01/24 14:29:10;;;;;;;9.87;8.37;;;6.90;87.60;;;;;;6222688;23;20432;-82
2022/01/24 14:31:37;;;;;;;13.20;10.40;;;6.70;88.50;;;;;;6223299;23;20399;-84
2022/01/24 14:34:06;;;;;;;13.87;8.80;;;6.70;89.10;;;;;;6223513;23;20435;-83
2022/01/24 14:36:33;;;;;;;10.63;8.93;;;6.80;90.20;;;;;;6224081;23;20798;-83
2022/01/24 14:39:04;;;;;;;12.17;10.43;;;6.80;90.20;;;;;;6222487;23;20487;-84
2022/01/24 14:41:35;;;;;;;11.73;9.83;;;6.80;90.20;;;;;;6220877;23;20752;-82
2022/01/24 14:46:50;;;;;;;14.90;8.37;;;6.80;90.00;;;;;;6229089;23;20411;-83
2022/01/24 14:49:20;;;;;;;11.40;8.53;;;6.80;89.60;;;;;;6231469;23;20463;-83
2022/01/24 14:51:48;;;;;;;11.13;9.60;;;6.70;90.10;;;;;;6231905;23;20404;-83
2022/01/24 14:54:23;;;;;;;12.73;10.20;;;6.60;90.60;;;;;;6222702;23;20494;-84
2022/01/24 14:56:55;;;;;;;12.80;9.47;;;6.50;91.20;;;;;;6221600;23;20733;-84
2022/01/24 14:59:23;;;;;;;10.10;9.20;;;6.50;90.80;;;;;;6220750;23;20442;-85
2022/01/24 15:01:52;;;;;;;12.43;9.70;;;6.30;90.90;;;;;;6223239;23;20432;-83